createdAt,value
2023-02-22T00:00:44.657Z,94178.41
2023-02-22T00:03:16.270Z,94189.00
2023-02-22T00:05:46.956Z,94182.81
2023-02-22T00:08:15.282Z,94177.91
2023-02-22T00:10:41.786Z,94175.56
2023-02-22T00:13:10.367Z,94175.56
2023-02-22T00:15:37.212Z,94172.44
2023-02-22T00:18:04.834Z,94173.22
2023-02-22T00:20:31.251Z,94169.59
2023-02-22T00:22:57.698Z,94171.13
2023-02-22T00:25:24.855Z,94173.47
2023-02-22T00:27:52.865Z,94171.38
2023-02-22T00:30:26.628Z,94178.91
2023-02-22T00:32:55.891Z,94176.03
2023-02-22T00:35:25.397Z,94167.72
2023-02-22T00:37:54.889Z,94162.28
2023-02-22T00:40:23.915Z,94170.00
2023-02-22T00:42:51.062Z,94167.19
2023-02-22T00:45:22.051Z,94168.19
2023-02-22T00:47:49.842Z,94169.78
2023-02-22T00:50:17.535Z,94165.16
2023-02-22T00:52:45.007Z,94169.03
2023-02-22T00:55:17.410Z,94160.50
2023-02-22T00:57:43.870Z,94165.66
2023-02-22T01:00:17.100Z,94164.41
2023-02-22T01:02:45.041Z,94162.84
2023-02-22T01:05:14.116Z,94163.69
2023-02-22T01:07:41.185Z,94154.66
2023-02-22T01:10:08.991Z,94146.66
2023-02-22T01:12:36.202Z,94143.56
2023-02-22T01:15:10.292Z,94147.97
2023-02-22T01:17:38.616Z,94148.50
2023-02-22T01:20:10.409Z,94151.88
2023-02-22T01:22:37.438Z,94146.97
2023-02-22T01:25:06.285Z,94142.09
2023-02-22T01:27:33.666Z,94146.72
2023-02-22T01:30:00.413Z,94143.91
2023-02-22T01:32:26.900Z,94149.09
2023-02-22T01:34:54.014Z,94149.34
2023-02-22T01:37:20.420Z,94145.97
2023-02-22T01:39:47.326Z,94154.00
2023-02-22T01:42:13.744Z,94152.19
2023-02-22T01:44:41.487Z,94149.84
2023-02-22T01:47:10.931Z,94142.09
2023-02-22T01:49:50.618Z,94144.44
2023-02-22T01:52:20.374Z,94145.22
2023-02-22T01:54:58.148Z,94133.31
2023-02-22T01:57:37.561Z,94141.84
2023-02-22T02:00:11.175Z,94144.19
2023-02-22T02:02:45.924Z,94137.22
2023-02-22T02:05:13.924Z,94136.44
2023-02-22T02:07:41.310Z,94127.66
2023-02-22T02:10:14.281Z,94127.13
2023-02-22T02:12:47.593Z,94128.41
2023-02-22T02:15:21.093Z,94129.44
2023-02-22T02:17:49.992Z,94122.97
2023-02-22T02:20:25.080Z,94121.94
2023-02-22T02:23:14.902Z,94123.47
2023-02-22T02:26:03.929Z,94111.28
2023-02-22T02:28:47.537Z,94111.53
2023-02-22T02:31:56.226Z,94112.06
2023-02-22T02:34:43.083Z,94089.31
2023-02-22T02:37:21.937Z,94103.31
2023-02-22T02:40:17.809Z,94104.59
2023-02-22T02:42:55.181Z,94092.44
2023-02-22T02:45:28.881Z,94096.06
2023-02-22T02:47:58.683Z,94085.72
2023-02-22T02:50:36.773Z,94085.44
2023-02-22T02:53:07.408Z,94085.44
2023-02-22T02:55:36.564Z,94077.41
2023-02-22T02:58:07.598Z,94087.25
2023-02-22T03:00:41.066Z,94086.22
2023-02-22T03:03:25.894Z,94081.06
2023-02-22T03:06:01.807Z,94077.47
2023-02-22T03:08:41.999Z,94079.53
2023-02-22T03:11:29.147Z,94070.22
2023-02-22T03:14:11.052Z,94069.97
2023-02-22T03:17:05.104Z,94067.13
2023-02-22T03:19:38.257Z,94075.63
2023-02-22T03:22:18.100Z,94059.34
2023-02-22T03:24:58.926Z,94059.34
2023-02-22T03:27:33.811Z,94059.06
2023-02-22T03:30:07.688Z,94051.81
2023-02-22T03:32:38.295Z,94046.63
2023-02-22T03:35:07.466Z,94045.56
2023-02-22T03:37:40.810Z,94048.13
2023-02-22T03:40:14.402Z,94044.22
2023-02-22T03:42:53.504Z,94044.97
2023-02-22T03:45:26.884Z,94041.78
2023-02-22T03:48:02.965Z,94037.84
2023-02-22T03:50:36.759Z,94040.41
2023-02-22T03:53:04.967Z,94053.34
2023-02-22T03:55:34.960Z,94049.16
2023-02-22T03:58:09.197Z,94046.50
2023-02-22T04:00:36.301Z,94045.75
2023-02-22T04:03:03.393Z,94046.31
2023-02-22T04:05:30.235Z,94042.25
2023-02-22T04:07:58.528Z,94047.19
2023-02-22T04:10:26.341Z,94034.88
2023-02-22T04:12:52.979Z,94052.41
2023-02-22T04:15:23.337Z,94057.59
2023-02-22T04:17:52.973Z,94053.72
2023-02-22T04:20:20.154Z,94052.19
2023-02-22T04:22:59.686Z,94055.81
2023-02-22T04:25:26.334Z,94054.00
2023-02-22T04:27:53.042Z,94051.16
2023-02-22T04:30:29.449Z,94050.41
2023-02-22T04:32:57.254Z,94047.59
2023-02-22T04:35:23.827Z,94031.88
2023-02-22T04:37:50.222Z,94040.13
2023-02-22T04:40:17.892Z,94045.28
2023-02-22T04:42:44.739Z,94043.16
2023-02-22T04:45:11.689Z,94043.38
2023-02-22T04:47:39.177Z,94043.09
2023-02-22T04:50:07.912Z,94033.72
2023-02-22T04:52:34.432Z,94036.84
2023-02-22T04:55:01.335Z,94030.91
2023-02-22T04:57:27.943Z,94033.44
2023-02-22T04:59:55.356Z,94024.66
2023-02-22T05:02:23.714Z,94027.50
2023-02-22T05:04:50.654Z,94027.03
2023-02-22T05:07:17.913Z,94027.59
2023-02-22T05:09:44.419Z,94029.19
2023-02-22T05:12:10.901Z,94028.19
2023-02-22T05:14:37.521Z,94019.44
2023-02-22T05:17:04.484Z,94027.69
2023-02-22T05:19:30.983Z,94027.19
2023-02-22T05:21:57.679Z,94022.28
2023-02-22T05:24:24.103Z,94022.28
2023-02-22T05:26:51.380Z,94019.97
2023-02-22T05:29:17.980Z,94018.94
2023-02-22T05:31:44.493Z,94018.75
2023-02-22T05:34:11.017Z,94015.16
2023-02-22T05:36:37.607Z,94013.91
2023-02-22T05:39:05.332Z,94019.88
2023-02-22T05:41:31.781Z,94010.84
2023-02-22T05:43:58.242Z,94011.13
2023-02-22T05:46:25.113Z,94008.31
2023-02-22T05:48:51.515Z,94013.22
2023-02-22T05:51:19.531Z,94007.78
2023-02-22T05:53:46.094Z,94000.06
2023-02-22T05:56:12.513Z,94009.63
2023-02-22T05:58:38.920Z,94010.13
2023-02-22T06:01:05.529Z,94006.00
2023-02-22T06:03:31.957Z,94010.94
2023-02-22T06:05:58.414Z,94008.88
2023-02-22T06:08:24.837Z,94010.94
2023-02-22T06:10:51.318Z,94011.97
2023-02-22T06:13:17.764Z,94002.69
2023-02-22T06:15:44.231Z,93998.03
2023-02-22T06:18:10.988Z,94000.38
2023-02-22T06:20:37.479Z,94002.44
2023-02-22T06:23:03.900Z,94005.25
2023-02-22T06:25:31.373Z,94003.19
2023-02-22T06:27:59.404Z,94006.81
2023-02-22T06:30:27.034Z,94009.63
2023-02-22T06:32:53.842Z,94002.94
2023-02-22T06:35:21.113Z,93998.03
2023-02-22T06:37:47.745Z,94009.91
2023-02-22T06:40:15.695Z,94006.28
2023-02-22T06:42:42.505Z,94012.19
2023-02-22T06:45:09.863Z,94003.66
2023-02-22T06:47:41.218Z,94010.16
2023-02-22T06:50:08.214Z,94008.31
2023-02-22T06:52:34.598Z,94012.19
2023-02-22T06:55:01.045Z,94017.84
2023-02-22T06:57:27.536Z,94016.00
2023-02-22T06:59:53.939Z,94019.59
2023-02-22T07:02:20.325Z,94019.28
2023-02-22T07:04:46.769Z,94019.50
2023-02-22T07:07:13.154Z,94017.13
2023-02-22T07:09:39.545Z,94025.09
2023-02-22T07:12:07.179Z,94019.16
2023-02-22T07:14:33.625Z,94015.50
2023-02-22T07:17:00.036Z,94022.66
2023-02-22T07:19:26.535Z,94022.63
2023-02-22T07:21:59.042Z,94031.09
2023-02-22T07:24:28.262Z,94034.16
2023-02-22T07:26:54.824Z,94030.19
2023-02-22T07:29:22.403Z,94037.19
2023-02-22T07:31:49.217Z,94040.50
2023-02-22T07:34:15.620Z,94036.06
2023-02-22T07:36:42.013Z,94035.47
2023-02-22T07:39:08.723Z,94021.22
2023-02-22T07:41:35.338Z,94031.28
2023-02-22T07:44:01.836Z,94024.59
2023-02-22T07:46:28.301Z,94019.44
2023-02-22T07:48:54.732Z,94019.66
2023-02-22T07:51:21.286Z,94027.16
2023-02-22T07:53:48.666Z,94027.44
2023-02-22T07:56:15.808Z,94025.84
2023-02-22T07:58:42.202Z,94023.50
2023-02-22T08:01:08.859Z,94021.94
2023-02-22T08:03:36.747Z,94017.81
2023-02-22T08:06:05.903Z,94024.44
2023-02-22T08:08:32.642Z,94022.81
2023-02-22T08:10:59.105Z,94016.53
2023-02-22T08:13:25.641Z,94012.88
2023-02-22T08:15:53.882Z,94012.53
2023-02-22T08:18:22.401Z,94006.47
2023-02-22T08:20:50.373Z,94006.13
2023-02-22T08:23:18.930Z,94010.16
2023-02-22T08:25:45.401Z,94014.97
2023-02-22T08:28:15.140Z,94006.00
2023-02-22T08:30:45.267Z,94008.03
2023-02-22T08:33:15.173Z,94005.81
2023-02-22T08:35:41.917Z,94003.13
2023-02-22T08:38:15.086Z,94010.84
2023-02-22T08:40:41.511Z,94004.75
2023-02-22T08:43:07.917Z,94010.78
2023-02-22T08:45:34.663Z,94002.50
2023-02-22T08:48:02.226Z,94009.44
2023-02-22T08:50:33.412Z,94006.31
2023-02-22T08:53:01.715Z,94002.88
2023-02-22T08:55:32.182Z,94000.78
2023-02-22T08:58:01.142Z,94001.09
2023-02-22T09:00:29.524Z,93997.25
2023-02-22T09:02:56.435Z,93982.22
2023-02-22T09:05:23.140Z,93990.16
2023-02-22T09:07:49.719Z,93988.50
2023-02-22T09:10:24.935Z,93987.28
2023-02-22T09:12:52.568Z,93983.13
2023-02-22T09:15:19.339Z,93988.63
2023-02-22T09:17:46.080Z,93976.63
2023-02-22T09:20:12.896Z,93975.88
2023-02-22T09:22:40.371Z,93973.06
2023-02-22T09:25:16.209Z,93982.94
2023-02-22T09:27:44.239Z,93979.31
2023-02-22T09:30:23.921Z,93971.84
2023-02-22T09:32:56.323Z,93980.63
2023-02-22T09:35:29.400Z,93962.09
2023-02-22T09:37:58.420Z,93972.88
2023-02-22T09:40:29.594Z,93967.41
2023-02-22T09:43:07.287Z,93965.75
2023-02-22T09:46:24.611Z,93970.47
2023-02-22T09:49:05.973Z,93965.22
2023-02-22T09:51:41.427Z,93966.28
2023-02-22T09:54:18.160Z,93964.59
2023-02-22T09:56:46.972Z,93955.25
2023-02-22T09:59:21.696Z,93954.53
2023-02-22T10:01:53.946Z,93949.50
2023-02-22T10:04:35.604Z,93963.81
2023-02-22T10:07:12.271Z,93951.97
2023-02-22T10:09:45.000Z,93951.75
2023-02-22T10:12:19.831Z,93950.81
2023-02-22T10:15:07.548Z,93948.31
2023-02-22T10:17:58.857Z,93946.63
2023-02-22T10:20:37.200Z,93944.09
2023-02-22T10:23:25.736Z,93949.19
2023-02-22T10:25:57.366Z,93952.25
2023-02-22T10:28:31.589Z,93947.00
2023-02-22T10:31:05.770Z,93937.56
2023-02-22T10:33:39.405Z,93944.03
2023-02-22T10:36:07.529Z,93942.03
2023-02-22T10:38:35.402Z,93942.94
2023-02-22T10:41:23.683Z,93941.31
2023-02-22T10:43:50.321Z,93935.44
2023-02-22T10:46:20.950Z,93930.53
2023-02-22T10:48:51.506Z,93931.75
2023-02-22T10:51:18.016Z,93928.72
2023-02-22T10:53:53.492Z,93921.50
2023-02-22T10:56:26.704Z,93927.91
2023-02-22T10:58:59.492Z,93931.63
2023-02-22T11:01:28.886Z,93924.81
2023-02-22T11:04:10.580Z,93929.78
2023-02-22T11:06:38.511Z,93922.22
2023-02-22T11:09:22.438Z,93916.97
2023-02-22T11:11:50.719Z,93927.06
2023-02-22T11:14:28.922Z,93924.00
2023-02-22T11:16:57.335Z,93921.72
2023-02-22T11:19:29.431Z,93923.22
2023-02-22T11:22:05.947Z,93921.81
2023-02-22T11:24:43.564Z,93910.16
2023-02-22T11:27:38.091Z,93922.66
2023-02-22T11:30:16.813Z,93909.06
2023-02-22T11:32:46.679Z,93905.47
2023-02-22T11:35:38.854Z,93899.22
2023-02-22T11:38:28.251Z,93900.25
2023-02-22T11:41:16.080Z,93895.38
2023-02-22T11:43:45.384Z,93886.91
2023-02-22T11:46:16.927Z,93885.03
2023-02-22T11:48:57.563Z,93879.63
2023-02-22T11:51:47.563Z,93883.53
2023-02-22T11:54:29.032Z,93876.84
2023-02-22T11:57:39.074Z,93872.94
2023-02-22T12:00:33.400Z,93867.56
2023-02-22T12:03:34.432Z,93868.34
2023-02-22T12:06:00.867Z,93867.25
2023-02-22T12:08:45.583Z,93868.13
2023-02-22T12:11:27.165Z,93862.53
2023-02-22T12:14:12.004Z,93863.06
2023-02-22T12:16:38.634Z,93857.22
2023-02-22T12:19:27.429Z,93856.78
2023-02-22T12:22:03.391Z,93858.53
2023-02-22T12:25:23.340Z,93854.38
2023-02-22T12:27:55.907Z,93856.66
2023-02-22T12:30:28.807Z,93847.72
2023-02-22T12:32:59.685Z,93851.66
2023-02-22T12:35:37.866Z,93845.03
2023-02-22T12:38:16.831Z,93841.88
2023-02-22T12:41:13.905Z,93840.75
2023-02-22T12:43:48.521Z,93840.09
2023-02-22T12:46:24.340Z,93838.47
2023-02-22T12:48:53.805Z,93840.19
2023-02-22T12:51:46.072Z,93831.13
2023-02-22T12:54:34.237Z,93834.81
2023-02-22T12:57:11.801Z,93831.31
2023-02-22T12:59:47.776Z,93827.81
2023-02-22T13:02:36.889Z,93827.84
2023-02-22T13:05:03.495Z,93831.34
2023-02-22T13:07:42.861Z,93829.25
2023-02-22T13:10:36.514Z,93828.53
2023-02-22T13:13:21.494Z,93826.00
2023-02-22T13:16:00.582Z,93822.06
2023-02-22T13:18:35.065Z,93813.63
2023-02-22T13:21:09.631Z,93811.19
2023-02-22T13:24:05.214Z,93810.97
2023-02-22T13:26:47.476Z,93803.50
2023-02-22T13:29:28.378Z,93817.03
2023-02-22T13:32:24.815Z,93815.69
2023-02-22T13:35:12.766Z,93816.31
2023-02-22T13:37:48.266Z,93811.91
2023-02-22T13:40:23.850Z,93818.72
2023-02-22T13:43:38.455Z,93811.50
2023-02-22T13:46:22.888Z,93808.66
2023-02-22T13:49:25.653Z,93805.66
2023-02-22T13:52:13.641Z,93811.34
2023-02-22T13:54:54.370Z,93807.38
2023-02-22T13:57:27.561Z,93800.91
2023-02-22T14:00:15.824Z,93804.75
2023-02-22T14:03:24.018Z,93799.22
2023-02-22T14:05:53.026Z,93798.72
2023-02-22T14:08:19.477Z,93799.53
2023-02-22T14:10:55.880Z,93806.34
2023-02-22T14:13:26.558Z,93806.53
2023-02-22T14:16:08.093Z,93808.91
2023-02-22T14:18:46.390Z,93801.88
2023-02-22T14:21:14.304Z,93815.72
2023-02-22T14:23:43.274Z,93808.69
2023-02-22T14:26:29.775Z,93811.47
2023-02-22T14:29:08.188Z,93815.81
2023-02-22T14:31:57.372Z,93816.00
2023-02-22T14:34:53.871Z,93816.78
2023-02-22T14:37:25.870Z,93811.59
2023-02-22T14:39:52.246Z,93805.72
2023-02-22T14:42:21.471Z,93815.56
2023-02-22T14:44:54.005Z,93807.56
2023-02-22T14:47:29.567Z,93816.00
2023-02-22T14:50:08.033Z,93799.72
2023-02-22T14:52:38.421Z,93808.06
2023-02-22T14:55:26.188Z,93800.31
2023-02-22T14:58:18.674Z,93807.84
2023-02-22T15:00:47.886Z,93814.06
2023-02-22T15:03:37.222Z,93817.16
2023-02-22T15:06:14.843Z,93810.38
2023-02-22T15:08:46.409Z,93808.50
2023-02-22T15:11:32.465Z,93811.91
2023-02-22T15:14:00.894Z,93813.97
2023-02-22T15:16:31.991Z,93815.25
2023-02-22T15:19:03.454Z,93818.44
2023-02-22T15:21:31.849Z,93808.91
2023-02-22T15:24:01.292Z,93806.75
2023-02-22T15:26:37.159Z,93811.91
2023-02-22T15:29:15.562Z,93817.44
2023-02-22T15:31:48.554Z,93809.56
2023-02-22T15:34:15.063Z,93816.81
2023-02-22T15:36:43.337Z,93812.16
2023-02-22T15:39:29.248Z,93809.78
2023-02-22T15:42:07.767Z,93809.22
2023-02-22T15:44:39.486Z,93810.84
2023-02-22T15:47:07.217Z,93814.47
2023-02-22T15:49:37.707Z,93816.31
2023-02-22T15:52:23.936Z,93815.72
2023-02-22T15:54:51.988Z,93818.50
2023-02-22T15:57:21.232Z,93822.25
2023-02-22T15:59:52.822Z,93815.50
2023-02-22T16:02:30.040Z,93814.97
2023-02-22T16:05:12.137Z,93811.13
2023-02-22T16:07:45.588Z,93813.09
2023-02-22T16:10:25.468Z,93809.66
2023-02-22T16:13:09.120Z,93818.03
2023-02-22T16:15:36.982Z,93820.53
2023-02-22T16:18:26.239Z,93812.72
2023-02-22T16:21:04.838Z,93822.31
2023-02-22T16:23:33.532Z,93818.81
2023-02-22T16:26:27.841Z,93817.59
2023-02-22T16:29:00.054Z,93816.56
2023-02-22T16:31:35.269Z,93819.94
2023-02-22T16:34:03.578Z,93812.88
2023-02-22T16:36:39.612Z,93822.88
2023-02-22T16:39:08.577Z,93825.34
2023-02-22T16:41:35.085Z,93817.97
2023-02-22T16:44:01.885Z,93821.50
2023-02-22T16:46:28.436Z,93826.88
2023-02-22T16:48:54.900Z,93822.41
2023-02-22T16:51:25.628Z,93820.56
2023-02-22T16:53:56.781Z,93818.84
2023-02-22T16:56:30.784Z,93826.22
2023-02-22T16:59:00.608Z,93819.72
2023-02-22T17:01:27.054Z,93831.06
2023-02-22T17:03:56.325Z,93826.00
2023-02-22T17:06:22.829Z,93830.09
2023-02-22T17:08:51.882Z,93828.72
2023-02-22T17:11:18.847Z,93838.19
2023-02-22T17:13:47.172Z,93837.88
2023-02-22T17:16:14.837Z,93838.16
2023-02-22T17:18:41.513Z,93830.16
2023-02-22T17:21:11.091Z,93832.13
2023-02-22T17:23:37.789Z,93840.25
2023-02-22T17:26:04.434Z,93846.06
2023-02-22T17:28:31.370Z,93846.66
2023-02-22T17:31:01.332Z,93860.00
2023-02-22T17:33:31.010Z,93856.16
2023-02-22T17:35:58.992Z,93855.69
2023-02-22T17:38:28.785Z,93853.97
2023-02-22T17:40:56.117Z,93858.53
2023-02-22T17:43:23.267Z,93862.84
2023-02-22T17:45:49.960Z,93863.41
2023-02-22T17:48:18.265Z,93857.84
2023-02-22T17:50:46.576Z,93869.03
2023-02-22T17:53:13.706Z,93862.59
2023-02-22T17:55:42.293Z,93865.50
2023-02-22T17:58:14.546Z,93866.38
2023-02-22T18:00:49.910Z,93860.97
2023-02-22T18:03:25.333Z,93870.47
2023-02-22T18:05:56.113Z,93874.56
2023-02-22T18:08:24.441Z,93869.56
2023-02-22T18:10:56.444Z,93871.03
2023-02-22T18:13:25.268Z,93872.72
2023-02-22T18:15:52.247Z,93871.56
2023-02-22T18:18:18.931Z,93873.34
2023-02-22T18:20:47.133Z,93871.91
2023-02-22T18:23:16.319Z,93868.34
2023-02-22T18:26:07.599Z,93875.38
2023-02-22T18:28:36.027Z,93873.16
2023-02-22T18:31:07.057Z,93878.34
2023-02-22T18:33:33.452Z,93866.81
2023-02-22T18:35:59.876Z,93882.50
2023-02-22T18:38:26.415Z,93869.31
2023-02-22T18:41:05.066Z,93877.41
2023-02-22T18:43:34.136Z,93868.94
2023-02-22T18:46:19.291Z,93876.38
2023-02-22T18:48:52.894Z,93872.44
2023-02-22T18:51:19.341Z,93875.50
2023-02-22T18:53:47.761Z,93882.16
2023-02-22T18:56:21.456Z,93873.94
2023-02-22T18:58:48.668Z,93870.66
2023-02-22T19:01:18.108Z,93879.34
2023-02-22T19:03:47.046Z,93870.03
2023-02-22T19:06:14.979Z,93874.91
2023-02-22T19:08:43.224Z,93867.13
2023-02-22T19:11:19.248Z,93869.81
2023-02-22T19:13:50.747Z,93865.88
2023-02-22T19:16:20.678Z,93860.69
2023-02-22T19:18:49.162Z,93870.03
2023-02-22T19:21:16.476Z,93871.34
2023-02-22T19:23:46.005Z,93874.72
2023-02-22T19:26:24.281Z,93875.97
2023-02-22T19:28:52.967Z,93873.19
2023-02-22T19:31:26.261Z,93873.47
2023-02-22T19:33:52.923Z,93880.50
2023-02-22T19:36:22.870Z,93883.59
2023-02-22T19:38:49.298Z,93886.47
2023-02-22T19:41:18.622Z,93886.75
2023-02-22T19:43:46.898Z,93877.31
2023-02-22T19:46:13.482Z,93880.47
2023-02-22T19:48:41.177Z,93884.25
2023-02-22T19:51:13.133Z,93890.28
2023-02-22T19:53:40.996Z,93886.44
2023-02-22T19:56:16.166Z,93887.00
2023-02-22T19:58:44.842Z,93893.28
2023-02-22T20:01:23.897Z,93886.63
2023-02-22T20:04:05.101Z,93884.09
2023-02-22T20:06:41.548Z,93885.25
2023-02-22T20:09:11.261Z,93890.22
2023-02-22T20:11:38.130Z,93893.38
2023-02-22T20:14:06.332Z,93900.22
2023-02-22T20:16:34.549Z,93900.69
2023-02-22T20:19:01.207Z,93900.41
2023-02-22T20:21:30.790Z,93902.25
2023-02-22T20:23:59.236Z,93900.97
2023-02-22T20:26:27.875Z,93904.06
2023-02-22T20:28:54.543Z,93902.50
2023-02-22T20:31:21.861Z,93909.53
2023-02-22T20:33:52.885Z,93907.22
2023-02-22T20:36:22.124Z,93903.38
2023-02-22T20:38:52.371Z,93908.47
2023-02-22T20:41:26.942Z,93904.06
2023-02-22T20:43:55.115Z,93895.75
2023-02-22T20:46:23.706Z,93906.44
2023-02-22T20:48:54.516Z,93901.56
2023-02-22T20:51:21.326Z,93896.34
2023-02-22T20:53:48.868Z,93900.00
2023-02-22T20:56:18.871Z,93903.84
2023-02-22T20:58:45.767Z,93900.47
2023-02-22T21:01:14.093Z,93901.25
2023-02-22T21:03:43.973Z,93897.88
2023-02-22T21:06:17.536Z,93892.69
2023-02-22T21:08:45.769Z,93897.88
2023-02-22T21:11:14.580Z,93898.97
2023-02-22T21:13:41.732Z,93895.84
2023-02-22T21:16:10.353Z,93896.34
2023-02-22T21:18:37.243Z,93907.22
2023-02-22T21:21:10.246Z,93905.88
2023-02-22T21:23:37.509Z,93901.47
2023-02-22T21:26:04.565Z,93899.66
2023-02-22T21:28:50.457Z,93908.19
2023-02-22T21:31:19.047Z,93907.69
2023-02-22T21:33:49.384Z,93903.06
2023-02-22T21:36:16.089Z,93907.00
2023-02-22T21:38:44.684Z,93906.53
2023-02-22T21:41:16.088Z,93896.72
2023-02-22T21:43:43.921Z,93899.00
2023-02-22T21:46:11.055Z,93894.41
2023-02-22T21:48:39.059Z,93897.84
2023-02-22T21:51:13.735Z,93895.53
2023-02-22T21:53:45.810Z,93895.31
2023-02-22T21:56:22.910Z,93896.66
2023-02-22T21:58:58.940Z,93894.34
2023-02-22T22:01:30.874Z,93899.81
2023-02-22T22:03:59.801Z,93893.38
2023-02-22T22:06:28.114Z,93901.94
2023-02-22T22:08:55.010Z,93894.16
2023-02-22T22:11:21.962Z,93888.75
2023-02-22T22:13:49.101Z,93901.44
2023-02-22T22:16:18.516Z,93898.34
2023-02-22T22:18:46.750Z,93885.66
2023-02-22T22:21:17.729Z,93887.47
2023-02-22T22:23:46.928Z,93892.66
2023-02-22T22:26:19.892Z,93890.38
2023-02-22T22:28:51.905Z,93894.50
2023-02-22T22:31:20.732Z,93890.38
2023-02-22T22:33:47.691Z,93892.19
2023-02-22T22:36:16.428Z,93898.91
2023-02-22T22:38:46.881Z,93896.59
2023-02-22T22:41:15.200Z,93895.25
2023-02-22T22:43:45.872Z,93895.25
2023-02-22T22:46:17.219Z,93896.81
2023-02-22T22:48:46.641Z,93899.41
2023-02-22T22:51:16.694Z,93896.13
2023-02-22T22:53:45.338Z,93897.94
2023-02-22T22:56:18.275Z,93900.78
2023-02-22T22:58:53.012Z,93895.59
2023-02-22T23:01:26.906Z,93896.88
2023-02-22T23:03:58.192Z,93899.19
2023-02-22T23:06:28.020Z,93899.97
2023-02-22T23:09:11.408Z,93893.53
2023-02-22T23:11:44.391Z,93894.84
2023-02-22T23:14:26.534Z,93901.34
2023-02-22T23:16:59.862Z,93898.06
2023-02-22T23:19:26.370Z,93906.91
2023-02-22T23:21:52.839Z,93906.91
2023-02-22T23:24:21.024Z,93891.88
2023-02-22T23:26:50.781Z,93894.75
2023-02-22T23:29:20.009Z,93900.16
2023-02-22T23:31:48.494Z,93896.78
2023-02-22T23:34:20.970Z,93898.06
2023-02-22T23:36:47.668Z,93905.28
2023-02-22T23:39:15.664Z,93907.31
2023-02-22T23:41:42.500Z,93901.94
2023-02-22T23:44:17.438Z,93909.09
2023-02-22T23:46:47.872Z,93905.66
2023-02-22T23:49:19.950Z,93910.28
2023-02-22T23:51:47.247Z,93905.09
2023-02-22T23:54:19.101Z,93906.63
2023-02-22T23:56:58.372Z,93908.16
2023-02-22T23:59:26.819Z,93909.72
